Time;durP1;ratioP1;P1;durP2;ratioP2;P2;SDS_P1;SDS_P2;PMS_P1;PMS_P2;Temp;Humidity;BMP_temperature;BMP_pressure;BME280_temperature;BME280_humidity;BME280_pressure;Samples;Min_cycle;Max_cycle;Signal;HPM_P1;HPM_P2
2022/11/09 00:00:53;;;;;;;;;;;13.30;55.20;;;8.89;66.39;95330.25;4954268;28;19909;-53
2022/11/09 00:03:19;;;;;;;;;;;13.30;55.10;;;8.90;67.74;95331.84;4939933;28;19935;-54
2022/11/09 00:05:59;;;;;;;;;;;13.30;55.10;;;8.90;67.74;95330.00;4941989;28;20327;-56
2022/11/09 00:08:25;;;;;;;;;;;13.30;55.00;;;8.86;66.20;95323.59;4921863;28;19910;-54
2022/11/09 00:10:52;;;;;;;;;;;13.30;55.00;;;8.86;65.34;95323.59;4938664;28;19953;-51
2022/11/09 00:13:20;;;;;;;;;;;13.20;55.00;;;8.95;65.46;95315.94;4950991;28;19913;-53
2022/11/09 00:15:49;;;;;;;;;;;13.20;55.00;;;9.00;64.67;95323.94;4954720;28;19916;-52
2022/11/09 00:18:21;;;;;;;;;;;13.20;55.00;;;9.02;64.69;95319.13;4933533;28;19925;-50
2022/11/09 00:20:46;;;;;;;;;;;13.20;54.90;;;8.98;65.82;95329.47;4955979;28;19941;-51
2022/11/09 00:23:15;;;;;;;;;;;13.20;54.90;;;8.90;65.66;95318.56;4962352;28;20460;-51
2022/11/09 00:25:42;;;;;;;;;;;13.20;54.80;;;8.87;65.91;95325.22;4941821;28;19914;-54
2022/11/09 00:28:08;;;;;;;;;;;13.20;54.80;;;8.83;66.62;95320.66;4948234;28;19940;-55
2022/11/09 00:30:36;;;;;;;;;;;13.20;54.70;;;8.75;66.58;95319.31;4947574;28;20551;-52
2022/11/09 00:33:02;;;;;;;;;;;13.10;54.70;;;8.72;66.79;95310.00;4954098;28;20439;-51
2022/11/09 00:35:28;;;;;;;;;;;13.10;54.70;;;8.65;66.59;95305.97;4958273;28;19957;-51
2022/11/09 00:37:53;;;;;;;;;;;13.00;54.60;;;8.63;67.81;95313.41;4957590;28;19925;-50
2022/11/09 00:40:19;;;;;;;;;;;13.00;54.60;;;8.52;67.77;95310.72;4955904;28;19914;-53
2022/11/09 00:42:45;;;;;;;;;;;13.00;54.60;;;8.45;67.74;95320.75;4941464;28;19914;-52
2022/11/09 00:45:10;;;;;;;;;;;12.90;54.60;;;8.41;68.62;95309.03;4941572;28;19914;-53
2022/11/09 00:47:39;;;;;;;;;;;12.90;54.60;;;8.33;69.18;95307.63;4949108;28;20403;-50
2022/11/09 00:50:08;;;;;;;;;;;12.90;54.60;;;8.31;68.95;95306.31;4958510;28;19917;-49
2022/11/09 00:52:34;;;;;;;;;;;12.80;54.60;;;8.35;68.62;95302.88;4955907;28;19910;-55
2022/11/09 00:55:02;;;;;;;;;;;12.80;54.60;;;8.39;68.94;95292.56;4958421;28;19973;-53
2022/11/09 00:57:28;;;;;;;;;;;12.80;54.60;;;8.43;67.25;95290.19;4956382;28;20588;-56
2022/11/09 00:59:54;;;;;;;;;;;12.80;54.60;;;8.51;67.72;95289.72;4962820;28;19916;-50
2022/11/09 01:02:22;;;;;;;;;;;12.80;54.60;;;8.55;67.73;95290.78;4949387;28;19924;-52
2022/11/09 01:04:48;;;;;;;;;;;12.80;54.60;;;8.50;67.91;95296.09;4964428;28;19917;-53
2022/11/09 01:07:14;;;;;;;;;;;12.80;54.60;;;8.41;68.31;95298.44;4963053;28;19910;-55
2022/11/09 01:09:39;;;;;;;;;;;12.80;54.50;;;8.29;68.46;95306.56;4952977;28;19909;-52
2022/11/09 01:12:05;;;;;;;;;;;12.70;54.40;;;8.23;68.74;95314.75;4943127;28;20322;-52
2022/11/09 01:14:34;;;;;;;;;;;12.70;54.40;;;8.10;69.91;95318.63;4959854;28;20617;-50
2022/11/09 01:16:59;;;;;;;;;;;12.60;54.40;;;7.96;70.22;95323.59;4954714;28;19914;-54
2022/11/09 01:19:25;;;;;;;;;;;12.50;54.40;;;7.79;71.97;95329.00;4938013;28;20863;-52
2022/11/09 01:21:54;;;;;;;;;;;12.40;54.40;;;7.66;71.14;95326.78;4958808;28;20399;-49
2022/11/09 01:24:19;;;;;;;;;;;12.30;54.40;;;7.52;71.75;95330.88;4944591;28;19922;-53
2022/11/09 01:27:01;;;;;;;;;;;12.20;54.40;;;7.32;74.21;95320.91;4953297;28;19952;-53
2022/11/09 01:29:29;;;;;;;;;;;12.10;54.50;;;7.19;74.16;95333.50;4944322;28;19988;-51
2022/11/09 01:31:55;;;;;;;;;;;12.00;54.50;;;7.03;75.80;95322.97;4952110;28;20320;-50
2022/11/09 01:34:23;;;;;;;;;;;11.90;54.60;;;6.89;76.28;95320.72;4939782;28;20231;-56
2022/11/09 01:36:50;;;;;;;;;;;11.70;54.60;;;6.71;77.26;95318.38;4953109;28;19910;-53
2022/11/09 01:39:18;;;;;;;;;;;11.60;54.70;;;6.65;77.84;95308.78;4961890;28;19997;-52
2022/11/09 01:41:44;;;;;;;;;;;11.50;54.80;;;6.56;78.59;95308.41;4938481;28;19910;-52
2022/11/09 01:44:18;;;;;;;;;;;11.40;54.90;;;6.45;77.95;95310.09;4935563;28;19913;-49
2022/11/09 01:47:03;;;;;;;;;;;11.30;55.00;;;6.54;79.09;95307.03;4942824;28;20345;-51
2022/11/09 01:49:51;;;;;;;;;;;11.30;55.30;;;6.58;78.91;95311.63;4935948;28;19950;-50
2022/11/09 01:52:34;;;;;;;;;;;11.20;55.40;;;6.65;77.97;95311.44;4942456;28;20412;-51
2022/11/09 01:55:08;;;;;;;;;;;11.30;55.60;;;6.73;78.63;95305.69;4940044;28;19914;-51
2022/11/09 01:58:04;;;;;;;;;;;11.30;55.70;;;6.78;79.53;95310.25;4946477;28;19964;-49
2022/11/09 02:00:36;;;;;;;;;;;11.30;55.80;;;6.79;78.72;95310.00;4922820;28;20405;-55
2022/11/09 02:03:10;;;;;;;;;;;11.40;55.80;;;6.88;78.93;95313.81;4944825;28;19964;-54
2022/11/09 02:05:41;;;;;;;;;;;11.40;55.90;;;6.92;79.21;95314.91;4950323;28;19939;-51
2022/11/09 02:08:09;;;;;;;;;;;11.40;55.90;;;6.95;79.74;95306.47;4939489;28;19925;-50
2022/11/09 02:11:02;;;;;;;;;;;11.50;55.90;;;7.00;79.39;95304.94;4958899;28;19948;-50
2022/11/09 02:13:33;;;;;;;;;;;11.50;56.00;;;7.06;79.33;95309.25;4941998;28;19910;-53
2022/11/09 02:16:00;;;;;;;;;;;11.60;56.00;;;7.11;79.25;95307.47;4948049;28;19920;-49
2022/11/09 02:18:27;;;;;;;;;;;11.60;56.00;;;7.18;78.52;95307.25;4959084;28;19910;-53
2022/11/09 02:20:57;;;;;;;;;;;11.70;56.10;;;7.24;78.20;95298.31;4964496;28;19918;-49
2022/11/09 02:23:26;;;;;;;;;;;11.70;56.00;;;7.31;79.76;95306.06;4935389;28;19923;-53
2022/11/09 02:26:13;;;;;;;;;;;11.80;56.10;;;7.38;78.79;95301.34;4926909;28;20013;-52
2022/11/09 02:28:43;;;;;;;;;;;11.80;56.10;;;7.39;78.29;95303.72;4930170;28;19910;-54
2022/11/09 02:31:14;;;;;;;;;;;11.80;56.10;;;7.46;78.44;95295.59;4947927;28;19910;-52
2022/11/09 02:34:23;;;;;;;;;;;11.90;56.10;;;7.52;77.16;95293.78;4937375;28;19960;-52
2022/11/09 02:36:49;;;;;;;;;;;12.00;56.10;;;7.56;76.83;95290.38;4933300;28;19942;-52
2022/11/09 02:39:21;;;;;;;;;;;12.00;56.10;;;7.60;74.30;95285.38;4931660;28;20001;-54
2022/11/09 02:42:06;;;;;;;;;;;12.10;56.10;;;7.80;74.17;95290.03;4935397;28;19918;-53
2022/11/09 02:44:48;;;;;;;;;;;12.20;56.10;;;7.94;72.90;95293.06;4940991;28;19969;-51
2022/11/09 02:47:14;;;;;;;;;;;12.30;56.10;;;8.03;71.04;95292.34;4934540;28;19997;-52
2022/11/09 02:49:40;;;;;;;;;;;12.40;56.00;;;8.13;70.54;95293.47;4925079;28;19946;-55
2022/11/09 02:52:06;;;;;;;;;;;12.50;56.00;;;8.27;70.54;95299.91;4954011;28;20036;-52
2022/11/09 02:54:31;;;;;;;;;;;12.60;55.90;;;8.37;69.67;95301.81;4940093;28;19913;-51
2022/11/09 02:57:00;;;;;;;;;;;12.70;55.80;;;8.50;67.83;95293.44;4939198;28;19910;-57
2022/11/09 02:59:31;;;;;;;;;;;12.80;55.70;;;8.65;70.05;95298.81;4937303;28;19925;-55
2022/11/09 03:01:56;;;;;;;;;;;12.90;55.60;;;8.73;67.50;95306.28;4937789;28;19914;-54
2022/11/09 03:04:22;;;;;;;;;;;13.00;55.50;;;8.81;67.11;95312.97;4939479;28;20019;-52
2022/11/09 03:06:54;;;;;;;;;;;13.10;56.10;;;8.89;66.49;95307.13;4935292;28;19925;-56
2022/11/09 03:09:19;;;;;;;;;;;13.20;55.40;;;9.00;66.23;95300.81;4937739;28;20024;-56
2022/11/09 03:11:45;;;;;;;;;;;13.30;55.20;;;9.09;67.35;95290.47;4938062;28;19911;-56
2022/11/09 03:14:11;;;;;;;;;;;13.40;55.10;;;9.19;62.56;95284.38;4943949;28;19914;-57
2022/11/09 03:16:38;;;;;;;;;;;13.50;55.00;;;9.31;63.90;95295.59;4937855;28;19916;-51
2022/11/09 03:19:10;;;;;;;;;;;13.60;54.90;;;9.38;62.98;95293.47;4926829;29;19917;-51
2022/11/09 03:21:36;;;;;;;;;;;13.60;54.70;;;9.44;64.21;95295.06;4941708;28;19974;-52
2022/11/09 03:24:02;;;;;;;;;;;13.70;54.70;;;9.46;65.04;95302.75;4927911;28;19930;-55
2022/11/09 03:26:28;;;;;;;;;;;13.80;54.60;;;9.43;65.25;95301.44;4951810;28;19914;-56
2022/11/09 03:28:56;;;;;;;;;;;13.80;53.90;;;9.39;64.43;95308.34;4943073;28;19917;-52
2022/11/09 03:31:25;;;;;;;;;;;13.80;54.30;;;9.40;64.92;95301.16;4944833;28;20005;-53
2022/11/09 03:33:51;;;;;;;;;;;13.80;54.20;;;9.44;64.83;95313.66;4948542;28;19921;-53
2022/11/09 03:36:17;;;;;;;;;;;13.80;54.20;;;9.45;62.74;95312.59;4935138;28;19911;-50
2022/11/09 03:38:42;;;;;;;;;;;13.80;54.10;;;9.49;63.57;95316.34;4930556;28;20262;-48
2022/11/09 03:41:08;;;;;;;;;;;13.90;54.10;;;9.57;61.03;95319.53;4937961;28;19921;-49
2022/11/09 03:43:34;;;;;;;;;;;14.00;54.10;;;9.62;62.71;95319.53;4937654;28;19922;-58
2022/11/09 03:45:59;;;;;;;;;;;14.00;54.00;;;9.64;63.78;95326.19;4945283;28;19918;-52
2022/11/09 03:48:25;;;;;;;;;;;14.10;53.90;;;9.66;63.46;95323.28;4938353;28;20007;-59
2022/11/09 03:50:57;;;;;;;;;;;14.10;53.80;;;9.63;66.03;95327.25;4939591;28;19914;-49
2022/11/09 03:53:22;;;;;;;;;;;14.10;53.70;;;9.59;66.08;95333.34;4936080;28;19992;-56
2022/11/09 03:55:48;;;;;;;;;;;14.10;53.70;;;9.57;66.03;95330.97;4947968;28;20274;-56
2022/11/09 03:58:14;;;;;;;;;;;14.10;53.60;;;9.57;67.40;95335.50;4939601;28;19915;-53
2022/11/09 04:00:39;;;;;;;;;;;14.10;53.60;;;9.49;66.26;95345.59;4946771;28;19910;-49
2022/11/09 04:03:05;;;;;;;;;;;14.10;53.60;;;9.47;68.62;95337.06;4940062;28;19919;-54
2022/11/09 04:05:31;;;;;;;;;;;14.10;53.60;;;9.43;68.28;95348.47;4952904;28;19961;-49
2022/11/09 04:07:57;;;;;;;;;;;14.00;53.60;;;9.43;68.28;95345.81;4941076;28;20285;-53
2022/11/09 04:10:25;;;;;;;;;;;14.00;53.60;;;9.40;66.37;95352.50;4940783;28;19911;-53
2022/11/09 04:12:54;;;;;;;;;;;13.90;53.60;;;9.37;69.48;95353.00;4951436;28;20451;-48
2022/11/09 04:15:26;;;;;;;;;;;13.90;53.70;;;9.36;70.41;95362.03;4940909;28;19959;-49
2022/11/09 04:18:01;;;;;;;;;;;13.90;53.70;;;9.29;70.89;95364.13;4948174;28;20325;-57
2022/11/09 04:20:30;;;;;;;;;;;13.90;53.80;;;9.24;70.69;95378.22;4938500;28;19932;-53
2022/11/09 04:23:03;;;;;;;;;;;13.90;53.80;;;9.21;69.50;95378.75;4928750;28;19985;-57
2022/11/09 04:25:35;;;;;;;;;;;13.90;54.50;;;9.16;70.03;95378.72;4943677;28;20384;-49
2022/11/09 04:28:04;;;;;;;;;;;13.80;53.80;;;9.11;71.60;95383.22;4942295;28;19921;-54
2022/11/09 04:30:34;;;;;;;;;;;13.80;53.90;;;9.02;72.28;95377.59;4936712;28;20396;-55
2022/11/09 04:33:02;;;;;;;;;;;13.70;53.80;;;8.98;72.93;95387.94;4938243;28;19956;-54
2022/11/09 04:35:31;;;;;;;;;;;13.70;53.90;;;8.94;73.28;95388.72;4941925;28;20283;-49
2022/11/09 04:38:06;;;;;;;;;;;13.60;53.90;;;8.93;73.41;95385.28;4939210;28;19957;-52
2022/11/09 04:40:34;;;;;;;;;;;13.60;54.10;;;8.90;74.21;95391.09;4934436;28;19918;-53
2022/11/09 04:43:03;;;;;;;;;;;13.60;54.20;;;8.91;75.47;95392.69;4946637;28;19920;-54
2022/11/09 04:45:32;;;;;;;;;;;13.50;54.20;;;8.94;75.49;95400.16;4939119;28;19910;-54
2022/11/09 04:48:02;;;;;;;;;;;13.50;54.40;;;8.94;76.33;95402.00;4941358;28;19918;-50
2022/11/09 04:50:29;;;;;;;;;;;13.50;54.40;;;8.91;79.07;95394.56;4956684;28;19910;-54
2022/11/09 04:53:14;;;;;;;;;;;13.40;54.50;;;8.87;81.13;95390.78;4944680;28;20003;-48
2022/11/09 04:55:40;;;;;;;;;;;13.40;54.60;;;8.80;82.30;95399.78;4934054;28;19919;-55
2022/11/09 04:58:07;;;;;;;;;;;13.30;54.70;;;8.75;83.36;95402.44;4936696;28;19910;-48
2022/11/09 05:00:33;;;;;;;;;;;13.30;54.90;;;8.67;84.82;95402.09;4936112;28;19910;-49
2022/11/09 05:03:05;;;;;;;;;;;13.20;55.00;;;8.63;85.73;95401.03;4928204;28;19925;-54
2022/11/09 05:05:36;;;;;;;;;;;13.10;55.10;;;8.55;86.52;95403.13;4940849;28;20077;-53
2022/11/09 05:08:04;;;;;;;;;;;13.10;55.30;;;8.49;86.82;95404.13;4951078;28;20967;-50
2022/11/09 05:10:31;;;;;;;;;;;13.00;55.50;;;8.43;87.13;95407.81;4942051;28;20352;-54
2022/11/09 05:13:06;;;;;;;;;;;13.00;55.50;;;8.39;87.61;95405.91;4936339;28;19949;-48
2022/11/09 05:15:33;;;;;;;;;;;12.90;55.70;;;8.31;89.36;95413.25;4936336;28;19921;-50
2022/11/09 05:18:00;;;;;;;;;;;12.90;55.90;;;8.22;89.28;95413.97;4943209;28;19910;-52
2022/11/09 05:20:27;;;;;;;;;;;12.80;56.00;;;8.17;90.20;95409.41;4943497;28;19957;-54
2022/11/09 05:25:38;;;;;;;;;;;12.70;56.30;;;8.18;91.42;95415.53;4941796;28;19925;-46
2022/11/09 05:28:04;;;;;;;;;;;12.60;56.50;;;8.16;92.03;95407.84;4936576;28;19910;-51
2022/11/09 05:30:30;;;;;;;;;;;12.60;56.60;;;8.13;92.72;95408.34;4944611;28;20012;-53
2022/11/09 05:32:56;;;;;;;;;;;12.60;56.80;;;8.07;93.49;95410.13;4940063;28;19917;-51
2022/11/09 05:35:22;;;;;;;;;;;12.60;56.90;;;8.07;94.17;95419.97;4940659;28;19976;-51
2022/11/09 05:37:49;;;;;;;;;;;12.50;57.00;;;8.01;95.67;95421.75;4950923;28;19925;-47
2022/11/09 05:40:18;;;;;;;;;;;12.50;57.10;;;7.96;95.52;95424.38;4920285;28;20296;-47
2022/11/09 05:42:44;;;;;;;;;;;12.50;57.30;;;7.91;96.65;95426.97;4945712;28;20438;-52
2022/11/09 05:45:17;;;;;;;;;;;12.40;57.30;;;7.94;96.74;95423.81;4936321;28;19918;-53
2022/11/09 05:47:46;;;;;;;;;;;12.40;57.50;;;7.95;96.31;95427.28;4939202;28;19997;-46
2022/11/09 05:50:15;;;;;;;;;;;12.40;57.70;;;7.92;97.28;95439.19;4942116;28;20028;-51
2022/11/09 05:52:40;;;;;;;;;;;12.40;57.80;;;7.88;97.12;95440.75;4931195;28;19914;-51
2022/11/09 05:55:07;;;;;;;;;;;12.40;57.90;;;7.91;96.79;95447.41;4948059;28;19914;-47
2022/11/09 05:57:39;;;;;;;;;;;12.40;58.00;;;7.91;97.11;95450.06;4937991;28;19973;-45
2022/11/09 06:00:06;;;;;;;;;;;12.40;58.10;;;7.90;97.08;95457.22;4936429;28;19910;-46
2022/11/09 06:02:33;;;;;;;;;;;12.40;58.20;;;7.89;97.33;95452.94;4943139;28;19915;-54
2022/11/09 06:04:58;;;;;;;;;;;12.40;58.30;;;7.90;97.71;95462.50;4946390;28;19914;-55
2022/11/09 06:07:24;;;;;;;;;;;12.30;58.40;;;7.87;98.74;95458.50;4952212;28;20399;-53
2022/11/09 06:09:50;;;;;;;;;;;12.30;58.40;;;7.87;100.00;95461.16;4962889;28;20381;-47
2022/11/09 06:12:16;;;;;;;;;;;12.30;58.50;;;7.88;99.67;95465.41;4927498;28;19920;-50
2022/11/09 06:14:41;;;;;;;;;;;12.30;58.70;;;7.91;100.00;95468.63;4941967;28;19910;-45
2022/11/09 06:17:07;;;;;;;;;;;12.30;58.80;;;7.91;100.00;95463.31;4948045;28;20017;-50
2022/11/09 06:19:33;;;;;;;;;;;12.30;58.90;;;7.86;100.00;95462.19;4932350;28;19910;-46
2022/11/09 06:21:58;;;;;;;;;;;12.30;59.00;;;7.91;100.00;95471.28;4936341;28;20424;-55
2022/11/09 06:24:24;;;;;;;;;;;12.30;59.40;;;7.92;100.00;95476.31;4952293;28;20372;-52
2022/11/09 06:26:53;;;;;;;;;;;12.30;59.20;;;7.96;100.00;95487.22;4952438;28;19969;-53
2022/11/09 06:29:19;;;;;;;;;;;12.30;59.30;;;8.01;100.00;95479.31;4958482;28;19988;-50
2022/11/09 06:31:45;;;;;;;;;;;12.30;59.50;;;8.13;100.00;95484.47;4954517;28;19909;-53
2022/11/09 06:34:10;;;;;;;;;;;12.40;59.70;;;8.20;100.00;95485.88;4953315;28;19917;-51
2022/11/09 06:36:36;;;;;;;;;;;12.40;59.90;;;8.22;100.00;95488.28;4948832;28;19918;-49
2022/11/09 06:39:02;;;;;;;;;;;12.50;60.00;;;8.22;100.00;95475.81;4936072;28;19913;-49
2022/11/09 06:41:27;;;;;;;;;;;12.50;60.00;;;8.20;100.00;95471.81;4956614;28;20347;-47
2022/11/09 06:43:53;;;;;;;;;;;12.50;60.00;;;8.15;100.00;95477.88;4954596;28;19957;-53
2022/11/09 06:46:20;;;;;;;;;;;12.50;60.00;;;8.16;100.00;95484.78;4949896;28;19914;-48
2022/11/09 06:48:45;;;;;;;;;;;12.50;60.00;;;8.17;100.00;95488.22;4953178;28;19961;-48
2022/11/09 06:51:11;;;;;;;;;;;12.50;60.10;;;8.20;100.00;95493.81;4934403;28;19913;-47
2022/11/09 06:53:40;;;;;;;;;;;12.50;60.20;;;8.23;100.00;95493.31;4958945;28;19910;-49
2022/11/09 06:56:06;;;;;;;;;;;12.50;60.40;;;8.25;100.00;95490.44;4933161;28;20029;-49
2022/11/09 06:58:33;;;;;;;;;;;12.60;60.40;;;8.25;100.00;95491.22;4913632;28;19951;-56
2022/11/09 07:01:11;;;;;;;;;;;12.60;60.50;;;8.28;100.00;95488.06;4941609;28;19958;-49
2022/11/09 07:03:40;;;;;;;;;;;12.60;60.50;;;8.30;100.00;95480.66;4925893;28;20092;-49
2022/11/09 07:06:10;;;;;;;;;;;12.60;60.60;;;8.39;100.00;95481.03;4956259;28;19910;-51
2022/11/09 07:08:36;;;;;;;;;;;12.70;60.70;;;8.43;100.00;95500.72;4938947;28;20311;-52
2022/11/09 07:11:12;;;;;;;;;;;12.80;60.90;;;8.50;100.00;95503.94;4950052;28;19910;-54
2022/11/09 07:13:39;;;;;;;;;;;12.80;60.90;;;8.56;100.00;95500.28;4937464;28;20351;-53
2022/11/09 07:16:06;;;;;;;;;;;12.90;60.90;;;8.62;100.00;95509.09;4945736;28;19952;-48
2022/11/09 07:18:33;;;;;;;;;;;13.00;61.10;;;8.69;100.00;95512.34;4942137;28;19923;-49
2022/11/09 07:21:04;;;;;;;;;;;13.10;61.10;;;8.75;100.00;95510.53;4953033;28;20439;-47
2022/11/09 07:23:33;;;;;;;;;;;13.10;61.10;;;8.80;100.00;95523.81;4936270;28;19926;-55
2022/11/09 07:25:59;;;;;;;;;;;13.20;61.20;;;8.85;100.00;95517.75;4935659;28;19923;-56
2022/11/09 07:28:25;;;;;;;;;;;13.20;61.20;;;8.91;100.00;95514.09;4923454;28;19971;-48
2022/11/09 07:30:51;;;;;;;;;;;13.30;61.50;;;8.92;100.00;95515.69;4940455;28;20365;-50
2022/11/09 07:33:19;;;;;;;;;;;13.20;61.30;;;8.92;100.00;95515.69;4928796;28;20944;-55
2022/11/09 07:35:45;;;;;;;;;;;13.30;61.40;;;8.92;100.00;95521.78;4937423;28;19911;-48
2022/11/09 07:38:15;;;;;;;;;;;13.30;61.50;;;8.97;100.00;95521.03;4931347;28;19937;-52
2022/11/09 07:40:44;;;;;;;;;;;13.40;61.60;;;9.06;100.00;95522.16;4919679;28;19954;-50
2022/11/09 07:43:11;;;;;;;;;;;13.40;61.60;;;9.13;100.00;95520.06;4930510;29;19922;-47
2022/11/09 07:45:37;;;;;;;;;;;13.50;61.70;;;9.19;100.00;95523.56;4934333;28;20440;-46
2022/11/09 07:48:10;;;;;;;;;;;13.50;61.70;;;9.25;100.00;95520.69;4935663;28;19953;-48
2022/11/09 07:50:39;;;;;;;;;;;13.60;61.80;;;9.29;100.00;95528.13;4926054;29;20020;-49
2022/11/09 07:53:06;;;;;;;;;;;13.70;61.80;;;9.31;100.00;95532.16;4936252;28;19990;-47
2022/11/09 07:55:36;;;;;;;;;;;13.70;61.70;;;9.37;100.00;95530.28;4935407;28;19910;-47
2022/11/09 07:58:08;;;;;;;;;;;13.90;61.80;;;9.46;100.00;95534.91;4934477;28;19984;-48
2022/11/09 08:00:37;;;;;;;;;;;13.90;62.70;;;9.56;100.00;95539.47;4940529;28;19949;-54
2022/11/09 08:03:04;;;;;;;;;;;14.00;61.70;;;9.61;100.00;95528.81;4933452;28;19961;-56
2022/11/09 08:05:31;;;;;;;;;;;14.10;61.70;;;9.65;100.00;95529.09;4932555;28;20277;-50
2022/11/09 08:08:04;;;;;;;;;;;14.30;61.60;;;9.76;100.00;95525.44;4935741;28;20047;-50
2022/11/09 08:10:32;;;;;;;;;;;14.40;61.50;;;9.81;100.00;95533.44;4944629;28;19920;-54
2022/11/09 08:13:02;;;;;;;;;;;14.50;61.40;;;9.86;100.00;95524.69;4930565;29;19953;-48
2022/11/09 08:15:29;;;;;;;;;;;14.60;61.30;;;9.86;100.00;95520.16;4933754;28;20339;-51
2022/11/09 08:18:03;;;;;;;;;;;14.70;61.30;;;9.89;100.00;95527.59;4936433;28;19910;-47
2022/11/09 08:20:29;;;;;;;;;;;14.80;61.30;;;9.82;100.00;95524.41;4942108;28;20100;-49
2022/11/09 08:22:55;;;;;;;;;;;14.80;61.10;;;9.84;100.00;95524.13;4932875;28;19922;-51
2022/11/09 08:25:22;;;;;;;;;;;14.80;61.00;;;9.91;99.52;95520.19;4935102;28;19914;-50
2022/11/09 08:27:48;;;;;;;;;;;14.90;61.00;;;10.13;99.98;95519.97;4943588;28;19910;-52
2022/11/09 08:30:20;;;;;;;;;;;15.00;61.00;;;10.24;98.02;95519.97;4934565;28;19910;-53
2022/11/09 08:32:48;;;;;;;;;;;15.20;61.00;;;10.48;98.93;95522.97;4936793;28;19917;-49
2022/11/09 08:35:18;;;;;;;;;;;15.40;61.00;;;10.63;99.73;95521.13;4936293;28;19911;-47
2022/11/09 08:37:46;;;;;;;;;;;15.50;60.90;;;10.81;99.00;95526.97;4935201;28;19954;-50
2022/11/09 08:40:19;;;;;;;;;;;15.70;60.90;;;10.94;98.70;95536.34;4936929;28;19918;-50
2022/11/09 08:42:45;;;;;;;;;;;15.80;60.80;;;11.05;96.65;95537.91;4936870;28;20380;-48
2022/11/09 08:45:15;;;;;;;;;;;16.00;60.80;;;11.09;96.15;95536.28;4943933;28;19921;-48
2022/11/09 08:47:44;;;;;;;;;;;16.10;60.60;;;11.17;96.55;95538.41;4923302;28;19910;-50
2022/11/09 08:50:13;;;;;;;;;;;16.10;60.40;;;11.27;96.53;95529.59;4944421;28;19918;-52
2022/11/09 08:52:40;;;;;;;;;;;16.20;60.50;;;11.35;96.59;95524.53;4933062;28;20014;-50
2022/11/09 08:55:07;;;;;;;;;;;16.20;60.50;;;11.43;96.15;95525.03;4944510;28;19910;-52
2022/11/09 08:57:33;;;;;;;;;;;16.20;60.60;;;11.48;96.75;95527.69;4938741;28;20296;-54
2022/11/09 09:00:04;;;;;;;;;;;16.30;60.50;;;11.54;96.88;95516.75;4935617;28;19914;-48
2022/11/09 09:02:30;;;;;;;;;;;16.40;60.50;;;11.63;96.60;95511.66;4939357;28;19914;-54
2022/11/09 09:04:55;;;;;;;;;;;16.40;60.40;;;11.64;96.27;95510.56;4952171;28;19910;-51
2022/11/09 09:07:24;;;;;;;;;;;16.50;60.40;;;11.67;96.28;95507.34;4937501;28;19913;-47
2022/11/09 09:09:49;;;;;;;;;;;16.60;60.30;;;11.72;95.52;95499.34;4932806;28;20305;-51
2022/11/09 09:12:15;;;;;;;;;;;16.60;60.20;;;11.76;95.46;95496.91;4928690;28;19961;-50
2022/11/09 09:14:43;;;;;;;;;;;16.70;60.20;;;11.69;94.17;95499.88;4940358;28;19914;-53
2022/11/09 09:17:09;;;;;;;;;;;16.70;60.00;;;11.77;94.00;95495.84;4939660;28;20427;-51
2022/11/09 09:19:35;;;;;;;;;;;16.80;60.00;;;11.85;94.84;95483.84;4941075;28;19914;-47
2022/11/09 09:22:01;;;;;;;;;;;16.80;60.00;;;11.85;93.16;95484.63;4935813;28;19914;-50
2022/11/09 09:24:27;;;;;;;;;;;16.90;60.00;;;11.94;93.19;95485.66;4951430;28;19925;-50
2022/11/09 09:26:53;;;;;;;;;;;17.00;59.90;;;11.96;93.26;95483.50;4957360;28;19913;-48
2022/11/09 09:29:19;;;;;;;;;;;17.10;59.80;;;12.01;92.29;95480.00;4953291;28;20289;-53
2022/11/09 09:31:45;;;;;;;;;;;17.20;59.70;;;12.12;92.88;95484.19;4944092;28;19917;-52
2022/11/09 09:34:14;;;;;;;;;;;17.30;59.60;;;12.19;92.15;95482.03;4932965;28;19924;-53
2022/11/09 09:36:39;;;;;;;;;;;17.40;59.60;;;12.25;91.98;95486.28;4939751;28;20004;-52
2022/11/09 09:39:11;;;;;;;;;;;17.40;59.60;;;12.34;92.24;95493.69;4936571;28;19910;-53
2022/11/09 09:41:51;;;;;;;;;;;17.40;59.60;;;12.34;92.52;95505.16;4938063;28;20356;-54
2022/11/09 09:44:16;;;;;;;;;;;17.30;59.60;;;12.36;93.63;95496.88;4933830;28;19918;-54
2022/11/09 09:47:14;;;;;;;;;;;17.30;59.70;;;12.38;92.92;95498.22;4952473;28;19980;-53
2022/11/09 09:49:58;;;;;;;;;;;17.30;59.80;;;12.39;92.62;95499.00;4954100;28;19917;-50
2022/11/09 09:52:55;;;;;;;;;;;17.20;59.80;;;12.31;91.84;95497.69;4966126;28;19914;-52
2022/11/09 09:55:53;;;;;;;;;;;17.20;59.80;;;12.29;92.33;95502.53;4949236;28;20003;-55
2022/11/09 09:58:31;;;;;;;;;;;17.20;59.80;;;12.29;92.54;95502.53;4955039;28;20264;-54
2022/11/09 10:01:19;;;;;;;;;;;17.20;59.80;;;12.30;94.41;95506.81;4939152;28;19949;-49
2022/11/09 10:03:47;;;;;;;;;;;17.20;59.90;;;12.25;93.97;95507.66;4943935;28;19937;-50
2022/11/09 10:06:57;;;;;;;;;;;17.20;59.90;;;12.16;93.03;95495.94;4927093;28;20001;-52
2022/11/09 10:09:35;;;;;;;;;;;17.30;59.80;;;12.08;92.29;95493.06;4948401;28;19954;-50
2022/11/09 10:12:38;;;;;;;;;;;17.40;59.70;;;12.20;94.21;95499.66;4956246;28;19914;-52
2022/11/09 10:15:34;;;;;;;;;;;17.50;59.60;;;12.36;92.88;95496.88;4956725;28;20269;-55
2022/11/09 10:18:07;;;;;;;;;;;17.60;59.60;;;12.44;92.01;95497.09;4938772;28;19918;-57
2022/11/09 10:20:50;;;;;;;;;;;17.70;59.50;;;12.47;91.27;95498.41;4942423;28;19910;-55
2022/11/09 10:23:58;;;;;;;;;;;17.70;59.40;;;12.65;92.52;95504.97;4961238;28;20392;-49
2022/11/09 10:26:50;;;;;;;;;;;17.80;59.40;;;12.62;92.64;95505.50;4951520;28;19961;-50
2022/11/09 10:29:27;;;;;;;;;;;17.90;59.30;;;12.67;93.47;95508.94;4946010;28;20390;-52
2022/11/09 10:32:07;;;;;;;;;;;17.90;59.30;;;12.67;94.26;95508.16;4933303;28;19913;-57
2022/11/09 10:35:17;;;;;;;;;;;17.90;59.30;;;12.66;93.87;95502.03;4934735;28;19948;-51
2022/11/09 10:37:48;;;;;;;;;;;17.90;59.30;;;12.72;93.91;95497.41;4945023;28;19953;-52
2022/11/09 10:41:10;;;;;;;;;;;17.90;59.30;;;12.79;91.46;95489.09;4942638;28;19910;-49
2022/11/09 10:43:36;;;;;;;;;;;17.90;59.30;;;12.80;91.35;95493.34;4932117;28;19922;-50
2022/11/09 10:46:07;;;;;;;;;;;17.90;59.40;;;12.79;91.29;95487.22;4939179;28;19916;-55
2022/11/09 10:48:37;;;;;;;;;;;17.80;59.40;;;12.71;91.58;95495.81;4935602;28;19921;-52
2022/11/09 10:51:05;;;;;;;;;;;17.80;59.40;;;12.64;91.70;95490.81;4949892;28;19957;-53
2022/11/09 10:53:33;;;;;;;;;;;17.70;59.40;;;12.62;90.47;95492.94;4950077;28;20538;-54
2022/11/09 10:56:17;;;;;;;;;;;17.60;59.50;;;12.55;91.03;95484.47;4941225;28;19914;-56
2022/11/09 10:58:52;;;;;;;;;;;17.60;59.50;;;12.54;91.98;95487.41;4948015;28;20486;-52
2022/11/09 11:01:35;;;;;;;;;;;17.50;59.60;;;12.49;91.11;95480.22;4951603;28;20001;-53
2022/11/09 11:04:21;;;;;;;;;;;17.50;59.60;;;12.52;89.50;95482.34;4937183;28;19921;-51
2022/11/09 11:06:47;;;;;;;;;;;17.40;59.70;;;12.46;89.67;95481.56;4931937;28;20676;-52
2022/11/09 11:09:19;;;;;;;;;;;17.40;59.70;;;12.44;90.71;95480.25;4925447;28;19910;-53
2022/11/09 11:11:46;;;;;;;;;;;17.40;59.70;;;12.48;90.74;95482.09;4955360;28;19913;-50
2022/11/09 11:14:21;;;;;;;;;;;17.40;59.80;;;12.54;90.47;95469.50;4951217;28;19913;-50
2022/11/09 11:16:49;;;;;;;;;;;17.50;59.80;;;12.57;90.61;95460.94;4929346;28;19924;-55
2022/11/09 11:19:40;;;;;;;;;;;17.50;59.70;;;12.65;91.16;95456.84;4951659;28;20025;-51
2022/11/09 11:22:13;;;;;;;;;;;17.60;59.80;;;12.69;91.72;95453.34;4947308;28;19917;-55
2022/11/09 11:24:44;;;;;;;;;;;17.70;59.70;;;12.79;91.18;95443.66;4952314;28;20222;-55
2022/11/09 11:27:22;;;;;;;;;;;17.80;59.70;;;12.86;90.86;95447.59;4952168;28;19917;-53
2022/11/09 11:30:21;;;;;;;;;;;17.80;59.60;;;12.92;91.22;95451.00;4951761;28;20560;-57
2022/11/09 11:32:48;;;;;;;;;;;17.90;59.70;;;12.87;90.90;95438.47;4954995;28;19974;-54
2022/11/09 11:35:31;;;;;;;;;;;17.90;59.70;;;12.87;89.65;95438.47;4928725;28;19916;-52
2022/11/09 11:38:35;;;;;;;;;;;17.90;59.60;;;12.87;89.83;95441.16;4930089;28;20008;-53
2022/11/09 11:41:32;;;;;;;;;;;18.00;59.60;;;12.86;90.23;95433.44;4948656;28;20174;-49